sensor_id;sensor_type;location;lat;lon;timestamp;pressure;altitude;pressure_sealevel;temperature;humidity
4141;BME280;2084;51.05870200;6.92092300;2022-09-03T00:01:19;54126.28;;;-144.41;43.91
4141;BME280;2084;51.05870200;6.92092300;2022-09-03T00:03:51;54189.50;;;-144.41;43.81
4141;BME280;2084;51.05870200;6.92092300;2022-09-03T00:06:23;54084.81;;;-144.41;44.19
4141;BME280;2084;51.05870200;6.92092300;2022-09-03T00:08:56;54108.50;;;-144.41;44.25
4141;BME280;2084;51.05870200;6.92092300;2022-09-03T00:11:28;54130.25;;;-144.41;44.35
4141;BME280;2084;51.05870200;6.92092300;2022-09-03T00:14:00;54090.72;;;-144.41;44.39
4141;BME280;2084;51.05870200;6.92092300;2022-09-03T00:16:34;54124.31;;;-144.41;44.52
4141;BME280;2084;51.05870200;6.92092300;2022-09-03T00:19:06;54108.50;;;-144.41;44.56
4141;BME280;2084;51.05870200;6.92092300;2022-09-03T00:21:37;54090.72;;;-144.41;44.80
4141;BME280;2084;51.05870200;6.92092300;2022-09-03T00:24:08;54055.19;;;-144.41;44.79
4141;BME280;2084;51.05870200;6.92092300;2022-09-03T00:26:35;54059.13;;;-144.41;44.84
4141;BME280;2084;51.05870200;6.92092300;2022-09-03T00:29:08;54094.69;;;-144.41;44.88
4141;BME280;2084;51.05870200;6.92092300;2022-09-03T00:31:37;54094.69;;;-144.41;44.88
4141;BME280;2084;51.05870200;6.92092300;2022-09-03T00:34:10;54110.47;;;-144.41;44.64
4141;BME280;2084;51.05870200;6.92092300;2022-09-03T00:36:42;54104.56;;;-144.41;44.82
4141;BME280;2084;51.05870200;6.92092300;2022-09-03T00:39:13;54070.97;;;-144.41;44.99
4141;BME280;2084;51.05870200;6.92092300;2022-09-03T00:47:33;54055.19;;;-144.41;45.22
4141;BME280;2084;51.05870200;6.92092300;2022-09-03T00:50:09;54057.16;;;-144.41;45.33
4141;BME280;2084;51.05870200;6.92092300;2022-09-03T00:52:45;54047.28;;;-144.41;45.78
4141;BME280;2084;51.05870200;6.92092300;2022-09-03T00:55:26;54035.41;;;-144.41;45.52
4141;BME280;2084;51.05870200;6.92092300;2022-09-03T00:58:06;54070.97;;;-144.41;45.20
4141;BME280;2084;51.05870200;6.92092300;2022-09-03T01:00:40;54043.31;;;-144.41;45.69
4141;BME280;2084;51.05870200;6.92092300;2022-09-03T01:03:10;54035.41;;;-144.41;45.73
4141;BME280;2084;51.05870200;6.92092300;2022-09-03T01:05:59;54023.56;;;-144.41;45.80
4141;BME280;2084;51.05870200;6.92092300;2022-09-03T01:08:41;54039.38;;;-144.41;45.73
4141;BME280;2084;51.05870200;6.92092300;2022-09-03T01:11:19;54027.53;;;-144.41;46.03
4141;BME280;2084;51.05870200;6.92092300;2022-09-03T01:13:56;54035.41;;;-144.41;45.87
4141;BME280;2084;51.05870200;6.92092300;2022-09-03T01:16:33;54070.97;;;-144.41;45.80
4141;BME280;2084;51.05870200;6.92092300;2022-09-03T01:19:12;54047.28;;;-144.41;46.11
4141;BME280;2084;51.05870200;6.92092300;2022-09-03T01:22:03;54063.06;;;-144.41;46.23
4141;BME280;2084;51.05870200;6.92092300;2022-09-03T01:24:52;54037.41;;;-144.41;46.22
4141;BME280;2084;51.05870200;6.92092300;2022-09-03T01:27:38;54013.69;;;-144.41;46.31
4141;BME280;2084;51.05870200;6.92092300;2022-09-03T01:30:12;54031.47;;;-144.41;46.12
4141;BME280;2084;51.05870200;6.92092300;2022-09-03T01:32:45;54051.22;;;-144.41;46.22
4141;BME280;2084;51.05870200;6.92092300;2022-09-03T01:35:22;54037.41;;;-144.41;46.23
4141;BME280;2084;51.05870200;6.92092300;2022-09-03T01:38:03;54007.75;;;-144.41;46.96
4141;BME280;2084;51.05870200;6.92092300;2022-09-03T01:40:48;53999.88;;;-144.41;46.63
4141;BME280;2084;51.05870200;6.92092300;2022-09-03T01:43:29;54029.50;;;-144.41;46.75
4141;BME280;2084;51.05870200;6.92092300;2022-09-03T01:46:06;54017.63;;;-144.41;46.54
4141;BME280;2084;51.05870200;6.92092300;2022-09-03T01:48:43;54039.38;;;-144.41;46.50
4141;BME280;2084;51.05870200;6.92092300;2022-09-03T01:51:17;53976.16;;;-144.41;46.47
4141;BME280;2084;51.05870200;6.92092300;2022-09-03T01:53:59;53991.97;;;-144.41;47.03
4141;BME280;2084;51.05870200;6.92092300;2022-09-03T01:56:41;53991.97;;;-144.41;47.15
4141;BME280;2084;51.05870200;6.92092300;2022-09-03T01:59:14;54027.53;;;-144.41;47.04
4141;BME280;2084;51.05870200;6.92092300;2022-09-03T02:01:51;53974.19;;;-144.41;46.96
4141;BME280;2084;51.05870200;6.92092300;2022-09-03T02:04:20;53976.16;;;-144.41;46.96
4141;BME280;2084;51.05870200;6.92092300;2022-09-03T02:06:48;53968.25;;;-144.41;47.12
4141;BME280;2084;51.05870200;6.92092300;2022-09-03T02:09:15;53968.25;;;-144.41;47.10
4141;BME280;2084;51.05870200;6.92092300;2022-09-03T02:11:43;53972.22;;;-144.41;47.07
4141;BME280;2084;51.05870200;6.92092300;2022-09-03T02:14:12;54037.41;;;-144.41;47.16
4141;BME280;2084;51.05870200;6.92092300;2022-09-03T02:16:39;53991.97;;;-144.41;47.18
4141;BME280;2084;51.05870200;6.92092300;2022-09-03T02:19:09;54009.75;;;-144.41;47.06
4141;BME280;2084;51.05870200;6.92092300;2022-09-03T02:21:39;54011.72;;;-144.41;47.20
4141;BME280;2084;51.05870200;6.92092300;2022-09-03T02:24:10;54057.16;;;-144.41;47.41
4141;BME280;2084;51.05870200;6.92092300;2022-09-03T02:26:36;53974.19;;;-144.41;47.28
4141;BME280;2084;51.05870200;6.92092300;2022-09-03T02:29:03;53932.69;;;-144.41;47.35
4141;BME280;2084;51.05870200;6.92092300;2022-09-03T02:31:30;53968.25;;;-144.41;47.64
4141;BME280;2084;51.05870200;6.92092300;2022-09-03T02:33:58;53984.06;;;-144.41;47.48
4141;BME280;2084;51.05870200;6.92092300;2022-09-03T02:36:29;53956.41;;;-144.41;47.20
4141;BME280;2084;51.05870200;6.92092300;2022-09-03T02:38:57;53995.91;;;-144.41;47.35
4141;BME280;2084;51.05870200;6.92092300;2022-09-03T02:41:23;53976.16;;;-144.41;47.46
4141;BME280;2084;51.05870200;6.92092300;2022-09-03T02:43:55;53976.16;;;-144.41;47.64
4141;BME280;2084;51.05870200;6.92092300;2022-09-03T02:46:26;53966.28;;;-144.41;47.47
4141;BME280;2084;51.05870200;6.92092300;2022-09-03T02:48:57;53972.22;;;-144.41;47.85
4141;BME280;2084;51.05870200;6.92092300;2022-09-03T02:51:25;53980.09;;;-144.41;47.93
4141;BME280;2084;51.05870200;6.92092300;2022-09-03T02:53:52;53964.31;;;-144.41;47.85
4141;BME280;2084;51.05870200;6.92092300;2022-09-03T02:56:18;53980.09;;;-144.41;47.68
4141;BME280;2084;51.05870200;6.92092300;2022-09-03T02:58:45;53956.41;;;-144.41;47.90
4141;BME280;2084;51.05870200;6.92092300;2022-09-03T03:01:11;53989.97;;;-144.41;47.79
4141;BME280;2084;51.05870200;6.92092300;2022-09-03T03:03:38;53960.34;;;-144.41;48.27
4141;BME280;2084;51.05870200;6.92092300;2022-09-03T03:06:05;53988.00;;;-144.41;47.91
4141;BME280;2084;51.05870200;6.92092300;2022-09-03T03:08:33;53952.44;;;-144.41;48.18
4141;BME280;2084;51.05870200;6.92092300;2022-09-03T03:10:59;53978.13;;;-144.41;47.96
4141;BME280;2084;51.05870200;6.92092300;2022-09-03T03:13:26;53909.00;;;-144.41;48.26
4141;BME280;2084;51.05870200;6.92092300;2022-09-03T03:15:55;53942.56;;;-144.41;48.03
4141;BME280;2084;51.05870200;6.92092300;2022-09-03T03:18:22;53956.41;;;-144.41;48.58
4141;BME280;2084;51.05870200;6.92092300;2022-09-03T03:20:49;53952.44;;;-144.41;48.72
4141;BME280;2084;51.05870200;6.92092300;2022-09-03T03:23:15;53928.75;;;-144.41;48.55
4141;BME280;2084;51.05870200;6.92092300;2022-09-03T03:25:43;53952.44;;;-144.41;48.41
4141;BME280;2084;51.05870200;6.92092300;2022-09-03T03:28:10;53934.69;;;-144.41;49.00
4141;BME280;2084;51.05870200;6.92092300;2022-09-03T03:30:38;53936.66;;;-144.41;48.53
4141;BME280;2084;51.05870200;6.92092300;2022-09-03T03:33:07;53948.50;;;-144.41;48.71
4141;BME280;2084;51.05870200;6.92092300;2022-09-03T03:35:34;53942.56;;;-144.41;48.77
4141;BME280;2084;51.05870200;6.92092300;2022-09-03T03:38:01;53940.59;;;-144.41;48.55
4141;BME280;2084;51.05870200;6.92092300;2022-09-03T03:40:27;53932.69;;;-144.41;48.91
4141;BME280;2084;51.05870200;6.92092300;2022-09-03T03:42:57;53909.00;;;-144.41;48.95
4141;BME280;2084;51.05870200;6.92092300;2022-09-03T03:45:24;53928.75;;;-144.41;48.65
4141;BME280;2084;51.05870200;6.92092300;2022-09-03T03:47:50;53984.06;;;-144.41;49.08
4141;BME280;2084;51.05870200;6.92092300;2022-09-03T03:50:17;53952.44;;;-144.41;48.77
4141;BME280;2084;51.05870200;6.92092300;2022-09-03T03:52:45;53948.50;;;-144.41;48.68
4141;BME280;2084;51.05870200;6.92092300;2022-09-03T03:55:13;53960.34;;;-144.41;48.64
4141;BME280;2084;51.05870200;6.92092300;2022-09-03T03:57:39;53944.56;;;-144.41;48.68
4141;BME280;2084;51.05870200;6.92092300;2022-09-03T04:00:09;53928.75;;;-144.41;48.76
4141;BME280;2084;51.05870200;6.92092300;2022-09-03T04:02:35;53916.91;;;-144.41;48.75
4141;BME280;2084;51.05870200;6.92092300;2022-09-03T04:05:02;53936.66;;;-144.41;48.83
4141;BME280;2084;51.05870200;6.92092300;2022-09-03T04:07:29;53932.69;;;-144.41;49.06
4141;BME280;2084;51.05870200;6.92092300;2022-09-03T04:09:55;53849.72;;;-144.41;48.78
4141;BME280;2084;51.05870200;6.92092300;2022-09-03T04:12:22;53966.28;;;-144.41;48.90
4141;BME280;2084;51.05870200;6.92092300;2022-09-03T04:14:48;53924.78;;;-144.41;48.89
4141;BME280;2084;51.05870200;6.92092300;2022-09-03T04:17:16;53952.44;;;-144.41;48.95
4141;BME280;2084;51.05870200;6.92092300;2022-09-03T04:19:42;53924.78;;;-144.41;48.95
4141;BME280;2084;51.05870200;6.92092300;2022-09-03T04:22:12;53952.44;;;-144.41;48.89
4141;BME280;2084;51.05870200;6.92092300;2022-09-03T04:24:40;53960.34;;;-144.41;48.68
4141;BME280;2084;51.05870200;6.92092300;2022-09-03T04:27:06;53966.28;;;-144.41;48.84
4141;BME280;2084;51.05870200;6.92092300;2022-09-03T04:29:33;53968.25;;;-144.41;48.75
4141;BME280;2084;51.05870200;6.92092300;2022-09-03T04:31:59;53920.84;;;-144.41;49.02
4141;BME280;2084;51.05870200;6.92092300;2022-09-03T04:34:44;53928.75;;;-144.41;48.81
4141;BME280;2084;51.05870200;6.92092300;2022-09-03T04:37:11;53930.72;;;-144.41;49.23
4141;BME280;2084;51.05870200;6.92092300;2022-09-03T04:39:37;53944.56;;;-144.41;49.28
4141;BME280;2084;51.05870200;6.92092300;2022-09-03T04:42:04;53909.00;;;-144.41;49.18
4141;BME280;2084;51.05870200;6.92092300;2022-09-03T04:44:31;53916.91;;;-144.41;49.39
4141;BME280;2084;51.05870200;6.92092300;2022-09-03T04:47:01;53984.06;;;-144.41;49.36
4141;BME280;2084;51.05870200;6.92092300;2022-09-03T04:49:28;53932.69;;;-144.41;49.21
4141;BME280;2084;51.05870200;6.92092300;2022-09-03T04:51:56;53897.13;;;-144.41;49.64
4141;BME280;2084;51.05870200;6.92092300;2022-09-03T04:54:22;53889.25;;;-144.41;49.65
4141;BME280;2084;51.05870200;6.92092300;2022-09-03T04:56:49;53920.84;;;-144.41;49.61
4141;BME280;2084;51.05870200;6.92092300;2022-09-03T04:59:15;53901.09;;;-144.41;49.75
4141;BME280;2084;51.05870200;6.92092300;2022-09-03T05:01:42;53930.72;;;-144.41;49.77
4141;BME280;2084;51.05870200;6.92092300;2022-09-03T05:04:08;53916.91;;;-144.41;49.67
4141;BME280;2084;51.05870200;6.92092300;2022-09-03T05:06:36;53948.50;;;-144.41;49.43
4141;BME280;2084;51.05870200;6.92092300;2022-09-03T05:09:04;53940.59;;;-144.41;49.52
4141;BME280;2084;51.05870200;6.92092300;2022-09-03T05:11:31;53932.69;;;-144.41;49.51
4141;BME280;2084;51.05870200;6.92092300;2022-09-03T05:13:58;53936.66;;;-144.41;49.45
4141;BME280;2084;51.05870200;6.92092300;2022-09-03T05:16:26;53928.75;;;-144.41;49.44
4141;BME280;2084;51.05870200;6.92092300;2022-09-03T05:18:55;53944.56;;;-144.41;49.70
4141;BME280;2084;51.05870200;6.92092300;2022-09-03T05:21:23;53938.63;;;-144.41;49.69
4141;BME280;2084;51.05870200;6.92092300;2022-09-03T05:23:51;53932.69;;;-144.41;49.51
4141;BME280;2084;51.05870200;6.92092300;2022-09-03T05:26:21;53914.91;;;-144.41;49.95
4141;BME280;2084;51.05870200;6.92092300;2022-09-03T05:28:52;53940.59;;;-144.41;49.89
4141;BME280;2084;51.05870200;6.92092300;2022-09-03T05:31:19;53922.81;;;-144.41;50.07
4141;BME280;2084;51.05870200;6.92092300;2022-09-03T05:33:47;53944.56;;;-144.41;49.77
4141;BME280;2084;51.05870200;6.92092300;2022-09-03T05:36:16;53950.47;;;-144.41;50.00
4141;BME280;2084;51.05870200;6.92092300;2022-09-03T05:38:43;53952.44;;;-144.41;49.76
4141;BME280;2084;51.05870200;6.92092300;2022-09-03T05:41:12;53942.56;;;-144.41;49.98
4141;BME280;2084;51.05870200;6.92092300;2022-09-03T05:43:41;53958.38;;;-144.41;49.91
4141;BME280;2084;51.05870200;6.92092300;2022-09-03T05:46:09;53968.25;;;-144.41;49.86
4141;BME280;2084;51.05870200;6.92092300;2022-09-03T05:48:38;53950.47;;;-144.41;49.82
4141;BME280;2084;51.05870200;6.92092300;2022-09-03T05:51:07;53932.69;;;-144.41;49.73
4141;BME280;2084;51.05870200;6.92092300;2022-09-03T05:53:35;53940.59;;;-144.41;49.94
4141;BME280;2084;51.05870200;6.92092300;2022-09-03T05:56:03;53952.44;;;-144.41;49.93
4141;BME280;2084;51.05870200;6.92092300;2022-09-03T05:58:31;54009.75;;;-144.41;49.73
4141;BME280;2084;51.05870200;6.92092300;2022-09-03T06:01:01;53980.09;;;-144.41;49.65
4141;BME280;2084;51.05870200;6.92092300;2022-09-03T06:03:34;53964.31;;;-144.41;49.52
4141;BME280;2084;51.05870200;6.92092300;2022-09-03T06:06:01;53999.88;;;-144.41;49.45
4141;BME280;2084;51.05870200;6.92092300;2022-09-03T06:08:29;53999.88;;;-144.41;49.75
4141;BME280;2084;51.05870200;6.92092300;2022-09-03T06:10:56;54015.66;;;-144.41;49.85
4141;BME280;2084;51.05870200;6.92092300;2022-09-03T06:13:23;53995.91;;;-144.41;49.29
4141;BME280;2084;51.05870200;6.92092300;2022-09-03T06:15:54;54035.41;;;-144.41;49.21
4141;BME280;2084;51.05870200;6.92092300;2022-09-03T06:18:22;54063.06;;;-144.41;49.29
4141;BME280;2084;51.05870200;6.92092300;2022-09-03T06:20:53;54118.38;;;-144.41;49.18
4141;BME280;2084;51.05870200;6.92092300;2022-09-03T06:23:20;54063.06;;;-144.41;48.80
4141;BME280;2084;51.05870200;6.92092300;2022-09-03T06:25:46;54080.84;;;-144.41;48.84
4141;BME280;2084;51.05870200;6.92092300;2022-09-03T06:28:13;54055.19;;;-144.41;49.01
4141;BME280;2084;51.05870200;6.92092300;2022-09-03T06:30:40;54072.94;;;-144.41;48.59
4141;BME280;2084;51.05870200;6.92092300;2022-09-03T06:33:07;54007.75;;;-144.41;48.41
4141;BME280;2084;51.05870200;6.92092300;2022-09-03T06:35:35;54094.69;;;-144.41;48.55
4141;BME280;2084;51.05870200;6.92092300;2022-09-03T06:38:02;54104.56;;;-144.41;48.29
4141;BME280;2084;51.05870200;6.92092300;2022-09-03T06:40:28;54070.97;;;-144.41;48.37
4141;BME280;2084;51.05870200;6.92092300;2022-09-03T06:42:56;54076.91;;;-144.41;48.57
4141;BME280;2084;51.05870200;6.92092300;2022-09-03T06:45:25;54098.63;;;-144.41;48.60
4141;BME280;2084;51.05870200;6.92092300;2022-09-03T06:47:52;54090.72;;;-144.41;48.45
4141;BME280;2084;51.05870200;6.92092300;2022-09-03T06:50:19;54094.69;;;-144.41;48.50
4141;BME280;2084;51.05870200;6.92092300;2022-09-03T06:52:51;54120.38;;;-144.41;48.27
4141;BME280;2084;51.05870200;6.92092300;2022-09-03T06:55:19;54165.81;;;-144.41;48.24
4141;BME280;2084;51.05870200;6.92092300;2022-09-03T06:57:46;54102.59;;;-144.41;47.98
4141;BME280;2084;51.05870200;6.92092300;2022-09-03T07:00:14;54144.06;;;-144.41;48.13
4141;BME280;2084;51.05870200;6.92092300;2022-09-03T07:02:41;54142.09;;;-144.41;48.27
4141;BME280;2084;51.05870200;6.92092300;2022-09-03T07:05:08;54153.94;;;-144.41;48.38
4141;BME280;2084;51.05870200;6.92092300;2022-09-03T07:07:34;54138.16;;;-144.41;47.98
4141;BME280;2084;51.05870200;6.92092300;2022-09-03T07:10:03;54157.91;;;-144.41;48.40
4141;BME280;2084;51.05870200;6.92092300;2022-09-03T07:12:30;54163.81;;;-144.41;48.24
4141;BME280;2084;51.05870200;6.92092300;2022-09-03T07:15:02;54177.66;;;-144.41;47.68
4141;BME280;2084;51.05870200;6.92092300;2022-09-03T07:17:29;54159.88;;;-144.41;47.67
4141;BME280;2084;51.05870200;6.92092300;2022-09-03T07:19:55;54183.56;;;-144.41;47.59
4141;BME280;2084;51.05870200;6.92092300;2022-09-03T07:22:22;54181.59;;;-144.41;47.71
4141;BME280;2084;51.05870200;6.92092300;2022-09-03T07:24:48;54171.72;;;-144.41;47.77
4141;BME280;2084;51.05870200;6.92092300;2022-09-03T07:27:17;54225.06;;;-144.41;48.08
4141;BME280;2084;51.05870200;6.92092300;2022-09-03T07:29:44;54213.22;;;-144.41;48.03
4141;BME280;2084;51.05870200;6.92092300;2022-09-03T07:32:10;54223.09;;;-144.41;48.26
4141;BME280;2084;51.05870200;6.92092300;2022-09-03T07:34:37;54217.16;;;-144.41;47.93
4141;BME280;2084;51.05870200;6.92092300;2022-09-03T07:37:04;54260.63;;;-144.41;47.66
4141;BME280;2084;51.05870200;6.92092300;2022-09-03T07:39:31;54258.66;;;-144.41;48.18
4141;BME280;2084;51.05870200;6.92092300;2022-09-03T07:41:58;54282.34;;;-144.41;48.15
4141;BME280;2084;51.05870200;6.92092300;2022-09-03T07:44:26;54335.69;;;-144.41;50.85
4141;BME280;2084;51.05870200;6.92092300;2022-09-03T07:46:53;54304.09;;;-144.41;46.99
4141;BME280;2084;51.05870200;6.92092300;2022-09-03T07:49:20;54339.66;;;-144.41;47.19
4141;BME280;2084;51.05870200;6.92092300;2022-09-03T07:51:47;54300.13;;;-144.41;46.88
4141;BME280;2084;51.05870200;6.92092300;2022-09-03T07:54:17;54351.50;;;-144.41;46.90
4141;BME280;2084;51.05870200;6.92092300;2022-09-03T07:56:44;54306.06;;;-144.41;47.12
4141;BME280;2084;51.05870200;6.92092300;2022-09-03T07:59:11;54339.66;;;-144.41;47.21
4141;BME280;2084;51.05870200;6.92092300;2022-09-03T08:01:39;54335.69;;;-144.41;47.28
4141;BME280;2084;51.05870200;6.92092300;2022-09-03T08:04:05;54308.03;;;-144.41;47.80
4141;BME280;2084;51.05870200;6.92092300;2022-09-03T08:06:32;54308.03;;;-144.41;47.94
4141;BME280;2084;51.05870200;6.92092300;2022-09-03T08:09:01;54313.97;;;-144.41;47.62
4141;BME280;2084;51.05870200;6.92092300;2022-09-03T08:11:28;54347.56;;;-144.41;48.20
4141;BME280;2084;51.05870200;6.92092300;2022-09-03T08:13:57;54375.22;;;-144.41;48.00
4141;BME280;2084;51.05870200;6.92092300;2022-09-03T08:16:27;54369.28;;;-144.41;47.15
4141;BME280;2084;51.05870200;6.92092300;2022-09-03T08:18:55;54335.69;;;-144.41;46.82
4141;BME280;2084;51.05870200;6.92092300;2022-09-03T08:21:22;54406.81;;;-144.41;47.53
4141;BME280;2084;51.05870200;6.92092300;2022-09-03T08:23:51;54387.06;;;-144.41;47.27
4141;BME280;2084;51.05870200;6.92092300;2022-09-03T08:26:20;54430.53;;;-144.41;46.87
4141;BME280;2084;51.05870200;6.92092300;2022-09-03T08:28:47;54418.69;;;-144.41;46.73
4141;BME280;2084;51.05870200;6.92092300;2022-09-03T08:31:16;54404.84;;;-144.41;46.89
4141;BME280;2084;51.05870200;6.92092300;2022-09-03T08:33:44;54440.41;;;-144.41;46.80
4141;BME280;2084;51.05870200;6.92092300;2022-09-03T08:36:14;54438.44;;;-144.41;46.73
4141;BME280;2084;51.05870200;6.92092300;2022-09-03T08:38:42;54426.56;;;-144.41;46.34
4141;BME280;2084;51.05870200;6.92092300;2022-09-03T08:41:11;54438.44;;;-144.41;46.70
4141;BME280;2084;51.05870200;6.92092300;2022-09-03T08:43:58;54474.00;;;-144.41;46.64
4141;BME280;2084;51.05870200;6.92092300;2022-09-03T08:46:37;54499.69;;;-144.41;46.49
4141;BME280;2084;51.05870200;6.92092300;2022-09-03T08:49:08;54497.69;;;-144.41;46.75
4141;BME280;2084;51.05870200;6.92092300;2022-09-03T08:51:40;54521.41;;;-144.41;46.60
4141;BME280;2084;51.05870200;6.92092300;2022-09-03T08:54:09;54541.16;;;-144.41;46.38
4141;BME280;2084;51.05870200;6.92092300;2022-09-03T08:56:38;54588.59;;;-144.41;46.52
4141;BME280;2084;51.05870200;6.92092300;2022-09-03T08:59:06;54517.47;;;-144.41;47.20
4141;BME280;2084;51.05870200;6.92092300;2022-09-03T09:01:41;54525.38;;;-144.41;47.08
4141;BME280;2084;51.05870200;6.92092300;2022-09-03T09:04:20;54525.38;;;-144.41;47.05
4141;BME280;2084;51.05870200;6.92092300;2022-09-03T09:06:55;54541.16;;;-144.41;47.28
4141;BME280;2084;51.05870200;6.92092300;2022-09-03T09:09:30;54529.31;;;-144.41;47.38
4141;BME280;2084;51.05870200;6.92092300;2022-09-03T09:12:07;54525.38;;;-144.41;47.75
4141;BME280;2084;51.05870200;6.92092300;2022-09-03T09:14:39;54801.97;;;-144.41;47.30
4141;BME280;2084;51.05870200;6.92092300;2022-09-03T09:17:23;54493.75;;;-144.41;47.87
4141;BME280;2084;51.05870200;6.92092300;2022-09-03T09:20:03;54485.84;;;-144.41;48.14
4141;BME280;2084;51.05870200;6.92092300;2022-09-03T09:22:37;54501.66;;;-144.41;48.64
4141;BME280;2084;51.05870200;6.92092300;2022-09-03T09:25:08;54450.28;;;-144.41;48.87
4141;BME280;2084;51.05870200;6.92092300;2022-09-03T09:27:44;54493.75;;;-144.41;48.50
4141;BME280;2084;51.05870200;6.92092300;2022-09-03T09:30:14;54521.41;;;-144.41;48.61
4141;BME280;2084;51.05870200;6.92092300;2022-09-03T09:32:42;54474.00;;;-144.41;48.87
4141;BME280;2084;51.05870200;6.92092300;2022-09-03T09:35:09;54481.91;;;-144.41;49.99
4141;BME280;2084;51.05870200;6.92092300;2022-09-03T09:37:47;54458.19;;;-144.41;49.68
4141;BME280;2084;51.05870200;6.92092300;2022-09-03T09:40:23;54456.22;;;-144.41;50.01
4141;BME280;2084;51.05870200;6.92092300;2022-09-03T09:42:51;54481.91;;;-144.41;50.65
4141;BME280;2084;51.05870200;6.92092300;2022-09-03T09:45:22;54466.09;;;-144.41;50.85
4141;BME280;2084;51.05870200;6.92092300;2022-09-03T09:47:54;54468.06;;;-144.41;51.26
4141;BME280;2084;51.05870200;6.92092300;2022-09-03T09:50:21;54505.59;;;-144.41;50.81
4141;BME280;2084;51.05870200;6.92092300;2022-09-03T09:52:58;54501.66;;;-144.41;50.84
4141;BME280;2084;51.05870200;6.92092300;2022-09-03T09:55:26;54505.59;;;-144.41;50.73
4141;BME280;2084;51.05870200;6.92092300;2022-09-03T09:58:03;54442.38;;;-144.41;51.03
4141;BME280;2084;51.05870200;6.92092300;2022-09-03T10:00:30;54529.31;;;-144.41;50.84
4141;BME280;2084;51.05870200;6.92092300;2022-09-03T10:02:59;54493.75;;;-144.41;50.83
4141;BME280;2084;51.05870200;6.92092300;2022-09-03T10:05:27;54458.19;;;-144.41;51.22
4141;BME280;2084;51.05870200;6.92092300;2022-09-03T10:07:57;54426.56;;;-144.41;51.35
4141;BME280;2084;51.05870200;6.92092300;2022-09-03T10:10:25;54470.03;;;-144.41;51.04
4141;BME280;2084;51.05870200;6.92092300;2022-09-03T10:12:57;54466.09;;;-144.41;51.40
4141;BME280;2084;51.05870200;6.92092300;2022-09-03T10:15:30;54470.03;;;-144.41;51.27
4141;BME280;2084;51.05870200;6.92092300;2022-09-03T10:18:05;54481.91;;;-144.41;51.80
4141;BME280;2084;51.05870200;6.92092300;2022-09-03T10:20:37;54474.00;;;-144.41;51.63
4141;BME280;2084;51.05870200;6.92092300;2022-09-03T10:23:17;54487.81;;;-144.41;51.97
4141;BME280;2084;51.05870200;6.92092300;2022-09-03T10:25:55;54501.66;;;-144.41;51.50
4141;BME280;2084;51.05870200;6.92092300;2022-09-03T10:28:29;54543.16;;;-144.41;51.41
4141;BME280;2084;51.05870200;6.92092300;2022-09-03T10:31:05;54553.03;;;-144.41;51.66
4141;BME280;2084;51.05870200;6.92092300;2022-09-03T10:33:39;54584.63;;;-144.41;51.07
4141;BME280;2084;51.05870200;6.92092300;2022-09-03T10:36:12;54628.09;;;-144.41;51.09
4141;BME280;2084;51.05870200;6.92092300;2022-09-03T10:38:45;54683.41;;;-144.41;50.95
4141;BME280;2084;51.05870200;6.92092300;2022-09-03T10:41:25;54632.06;;;-144.41;51.19
4141;BME280;2084;51.05870200;6.92092300;2022-09-03T10:44:07;54655.75;;;-144.41;51.38
4141;BME280;2084;51.05870200;6.92092300;2022-09-03T10:46:45;54626.13;;;-144.41;52.47
4141;BME280;2084;51.05870200;6.92092300;2022-09-03T10:49:33;54659.72;;;-144.41;51.92
4141;BME280;2084;51.05870200;6.92092300;2022-09-03T10:52:07;54707.13;;;-144.41;51.08
4141;BME280;2084;51.05870200;6.92092300;2022-09-03T10:54:48;54742.69;;;-144.41;51.08
4141;BME280;2084;51.05870200;6.92092300;2022-09-03T10:57:27;54750.59;;;-144.41;51.79
4141;BME280;2084;51.05870200;6.92092300;2022-09-03T11:00:02;54770.34;;;-144.41;51.82
4141;BME280;2084;51.05870200;6.92092300;2022-09-03T11:05:23;54869.16;;;-144.41;51.71
4141;BME280;2084;51.05870200;6.92092300;2022-09-03T11:08:00;54920.53;;;-144.41;51.24
4141;BME280;2084;51.05870200;6.92092300;2022-09-03T11:10:33;54977.84;;;-144.41;50.98
4141;BME280;2084;51.05870200;6.92092300;2022-09-03T11:13:03;55019.31;;;-144.41;50.44
4141;BME280;2084;51.05870200;6.92092300;2022-09-03T11:15:33;54991.66;;;-144.41;49.86
4141;BME280;2084;51.05870200;6.92092300;2022-09-03T11:18:06;55017.34;;;-144.41;49.37
4141;BME280;2084;51.05870200;6.92092300;2022-09-03T11:20:37;55104.28;;;-144.41;49.13
4141;BME280;2084;51.05870200;6.92092300;2022-09-03T11:23:04;55130.00;;;-144.41;49.52
4141;BME280;2084;51.05870200;6.92092300;2022-09-03T11:25:36;55163.56;;;-144.41;48.37
4141;BME280;2084;51.05870200;6.92092300;2022-09-03T11:28:14;55183.34;;;-144.41;48.18
4141;BME280;2084;51.05870200;6.92092300;2022-09-03T11:30:51;55216.94;;;-144.41;48.76
4141;BME280;2084;51.05870200;6.92092300;2022-09-03T11:33:23;55212.97;;;-144.41;48.61
4141;BME280;2084;51.05870200;6.92092300;2022-09-03T11:35:56;55209.03;;;-144.41;47.72
4141;BME280;2084;51.05870200;6.92092300;2022-09-03T11:38:26;55114.19;;;-144.41;48.63
4141;BME280;2084;51.05870200;6.92092300;2022-09-03T11:41:02;55048.97;;;-144.41;48.78
4141;BME280;2084;51.05870200;6.92092300;2022-09-03T11:43:31;55126.03;;;-144.41;48.45
4141;BME280;2084;51.05870200;6.92092300;2022-09-03T11:46:03;55114.19;;;-144.41;48.57
4141;BME280;2084;51.05870200;6.92092300;2022-09-03T11:48:35;55052.91;;;-144.41;49.32
4141;BME280;2084;51.05870200;6.92092300;2022-09-03T11:51:03;55124.06;;;-144.41;48.72
4141;BME280;2084;51.05870200;6.92092300;2022-09-03T11:53:34;55159.63;;;-144.41;49.09